createdAt,value
2023-01-03T00:00:14.118Z,73.62
2023-01-03T00:05:16.404Z,72.29
2023-01-03T00:10:18.645Z,69.45
2023-01-03T00:15:20.839Z,68.11
2023-01-03T00:20:23.502Z,68.31
2023-01-03T00:25:26.648Z,67.50
2023-01-03T00:30:28.942Z,67.90
2023-01-03T00:35:31.086Z,69.25
2023-01-03T00:40:33.415Z,67.93
2023-01-03T00:45:35.870Z,66.39
2023-01-03T00:50:38.633Z,66.30
2023-01-03T00:55:41.173Z,65.28
2023-01-03T01:00:43.369Z,65.39
2023-01-03T01:05:45.474Z,65.03
2023-01-03T01:11:02.224Z,65.10
2023-01-03T01:16:07.455Z,64.47
2023-01-03T01:21:13.430Z,64.86
2023-01-03T01:26:17.729Z,64.86
2023-01-03T01:31:23.540Z,64.88
2023-01-03T01:36:28.900Z,65.28
2023-01-03T01:41:51.779Z,64.87
2023-01-03T01:46:55.022Z,64.71
2023-01-03T01:51:58.001Z,64.34
2023-01-03T01:57:03.085Z,65.40
2023-01-03T02:02:06.763Z,65.12
2023-01-03T02:07:13.492Z,64.34
2023-01-03T02:12:52.159Z,64.62
2023-01-03T02:18:22.840Z,64.39
2023-01-03T02:23:46.287Z,64.28
2023-01-03T02:28:58.224Z,64.57
2023-01-03T02:34:04.746Z,64.60
2023-01-03T02:39:45.404Z,64.97
2023-01-03T02:45:05.426Z,65.30
2023-01-03T02:50:11.658Z,65.23
2023-01-03T02:55:22.322Z,64.82
2023-01-03T03:00:28.853Z,64.45
2023-01-03T03:05:43.066Z,65.40
2023-01-03T03:11:05.572Z,64.96
2023-01-03T03:16:40.780Z,64.78
2023-01-03T03:22:01.827Z,65.69
2023-01-03T03:27:27.631Z,65.85
2023-01-03T03:32:32.512Z,66.65
2023-01-03T03:37:38.281Z,66.57
2023-01-03T03:43:11.242Z,66.02
2023-01-03T03:48:29.543Z,65.66
2023-01-03T03:53:36.473Z,64.93
2023-01-03T03:58:50.076Z,66.56
2023-01-03T04:03:54.201Z,67.01
2023-01-03T04:08:56.492Z,66.87
2023-01-03T04:13:58.689Z,66.86
2023-01-03T04:19:00.855Z,65.45
2023-01-03T04:24:05.015Z,65.33
2023-01-03T04:29:08.757Z,64.95
2023-01-03T04:34:10.926Z,65.08
2023-01-03T04:39:13.488Z,67.01
2023-01-03T04:44:15.639Z,66.62
2023-01-03T04:49:17.923Z,67.83
2023-01-03T04:54:20.166Z,65.90
2023-01-03T04:59:22.384Z,66.28
2023-01-03T05:04:26.078Z,65.33
2023-01-03T05:09:30.554Z,65.57
2023-01-03T05:14:32.720Z,65.58
2023-01-03T05:19:40.880Z,64.87
2023-01-03T05:25:06.103Z,68.18
2023-01-03T05:30:08.331Z,68.64
2023-01-03T05:35:10.659Z,67.74
2023-01-03T05:40:13.867Z,67.25
2023-01-03T05:45:16.752Z,66.27
2023-01-03T05:50:20.115Z,65.32
2023-01-03T05:55:32.846Z,68.80
2023-01-03T06:00:35.286Z,67.24
2023-01-03T06:05:37.412Z,65.61
2023-01-03T06:10:41.271Z,65.07
2023-01-03T06:15:43.643Z,64.80
2023-01-03T06:20:45.849Z,65.94
2023-01-03T06:25:48.014Z,66.17
2023-01-03T06:30:50.232Z,65.39
2023-01-03T06:35:53.040Z,66.65
2023-01-03T06:40:55.285Z,65.86
2023-01-03T06:46:17.700Z,64.88
2023-01-03T06:51:40.383Z,65.39
2023-01-03T06:56:42.908Z,66.60
2023-01-03T07:01:46.547Z,65.43
2023-01-03T07:06:48.879Z,65.67
2023-01-03T07:11:51.643Z,68.45
2023-01-03T07:16:53.772Z,67.84
2023-01-03T07:21:55.948Z,68.00
2023-01-03T07:27:02.349Z,66.69
2023-01-03T07:32:05.359Z,64.90
2023-01-03T07:37:16.544Z,64.72
2023-01-03T07:42:37.320Z,64.11
2023-01-03T07:47:43.993Z,64.99
2023-01-03T07:52:46.120Z,64.95
2023-01-03T07:57:48.300Z,64.71
2023-01-03T08:02:54.657Z,65.07
2023-01-03T08:07:56.868Z,65.75
2023-01-03T08:13:17.688Z,65.82
2023-01-03T08:18:21.086Z,67.74
2023-01-03T08:23:27.420Z,67.07
2023-01-03T08:28:29.886Z,65.09
2023-01-03T08:33:40.511Z,64.47
2023-01-03T08:39:00.754Z,66.20
2023-01-03T08:44:04.418Z,65.88
2023-01-03T08:49:06.624Z,64.50
2023-01-03T08:54:08.859Z,63.79
2023-01-03T08:59:11.017Z,63.35
2023-01-03T09:04:13.242Z,63.78
2023-01-03T09:09:15.516Z,64.19
2023-01-03T09:14:17.777Z,64.88
2023-01-03T09:19:19.994Z,64.07
2023-01-03T09:24:22.198Z,64.71
2023-01-03T09:29:24.530Z,66.03
2023-01-03T09:34:26.715Z,64.54
2023-01-03T09:39:28.882Z,64.37
2023-01-03T09:44:31.039Z,63.79
2023-01-03T09:49:51.897Z,63.61
2023-01-03T09:55:19.590Z,63.60
2023-01-03T10:01:17.345Z,63.77
2023-01-03T10:07:16.657Z,63.91
2023-01-03T10:12:46.064Z,64.22
2023-01-03T10:18:18.403Z,65.40
2023-01-03T10:23:20.699Z,65.21
2023-01-03T10:28:26.528Z,64.71
2023-01-03T10:33:38.757Z,64.70
2023-01-03T10:38:52.422Z,63.81
2023-01-03T10:44:00.969Z,65.82
2023-01-03T10:49:33.310Z,64.37
2023-01-03T10:54:41.327Z,65.90
2023-01-03T10:59:50.016Z,63.53
2023-01-03T11:05:13.700Z,62.85
2023-01-03T11:10:19.695Z,62.37
2023-01-03T11:15:39.136Z,61.96
2023-01-03T11:21:04.850Z,61.95
2023-01-03T11:26:33.509Z,59.21
2023-01-03T11:32:39.999Z,61.55
2023-01-03T11:37:55.303Z,61.75
2023-01-03T11:43:32.651Z,61.16
2023-01-03T11:48:50.643Z,61.30
2023-01-03T11:55:02.890Z,60.93
2023-01-03T12:00:40.504Z,60.79
2023-01-03T12:05:46.836Z,61.04
2023-01-03T12:11:49.241Z,59.92
2023-01-03T12:17:11.112Z,59.15
2023-01-03T12:22:38.312Z,59.20
2023-01-03T12:27:48.213Z,58.54
2023-01-03T12:33:00.733Z,59.92
2023-01-03T12:38:05.671Z,60.04
2023-01-03T12:43:25.655Z,57.30
2023-01-03T12:48:52.119Z,57.05
2023-01-03T12:54:19.349Z,56.46
2023-01-03T12:59:53.254Z,57.02
2023-01-03T13:05:15.304Z,56.90
2023-01-03T13:10:24.309Z,56.93
2023-01-03T13:15:36.557Z,57.57
2023-01-03T13:20:47.869Z,57.93
2023-01-03T13:26:05.585Z,57.52
2023-01-03T13:31:22.821Z,56.56
2023-01-03T13:36:25.778Z,56.55
2023-01-03T13:41:38.266Z,57.78
2023-01-03T13:46:43.172Z,57.92
2023-01-03T13:51:55.865Z,58.38
2023-01-03T13:57:03.470Z,58.55
2023-01-03T14:02:33.014Z,57.92
2023-01-03T14:08:15.606Z,58.02
2023-01-03T14:13:42.038Z,57.69
2023-01-03T14:19:04.728Z,56.86
2023-01-03T14:24:13.965Z,56.50
2023-01-03T14:29:26.984Z,55.02
2023-01-03T14:34:37.436Z,54.36
2023-01-03T14:39:42.713Z,53.42
2023-01-03T14:44:51.411Z,52.80
2023-01-03T14:49:55.479Z,51.86
2023-01-03T14:55:04.480Z,51.29
2023-01-03T15:00:09.115Z,50.74
2023-01-03T15:05:33.418Z,51.65
2023-01-03T15:10:50.475Z,53.54
2023-01-03T15:16:01.753Z,55.31
2023-01-03T15:21:05.986Z,56.85
2023-01-03T15:26:38.593Z,57.85
2023-01-03T15:32:05.274Z,58.78
2023-01-03T15:37:19.726Z,58.95
2023-01-03T15:42:45.351Z,59.00
2023-01-03T15:47:52.717Z,59.52
2023-01-03T15:52:55.216Z,60.20
2023-01-03T15:58:03.464Z,61.01
2023-01-03T16:03:06.042Z,61.81
2023-01-03T16:08:30.519Z,61.97
2023-01-03T16:13:39.092Z,62.11
2023-01-03T16:18:46.694Z,62.72
2023-01-03T16:23:48.998Z,62.42
2023-01-03T16:29:07.103Z,62.51
2023-01-03T16:34:18.476Z,63.23
2023-01-03T16:39:27.075Z,63.73
2023-01-03T16:44:29.275Z,63.26
2023-01-03T16:49:38.665Z,62.92
2023-01-03T16:54:42.066Z,63.43
2023-01-03T16:59:44.968Z,63.66
2023-01-03T17:04:47.247Z,63.31
2023-01-03T17:09:51.611Z,63.13
2023-01-03T17:14:53.840Z,63.66
2023-01-03T17:20:05.193Z,63.22
2023-01-03T17:25:12.038Z,63.90
2023-01-03T17:30:20.451Z,63.38
2023-01-03T17:35:23.341Z,63.29
2023-01-03T17:40:34.048Z,62.81
2023-01-03T17:45:55.375Z,62.22
2023-01-03T17:51:00.515Z,62.88
2023-01-03T17:56:05.798Z,63.16
2023-01-03T18:01:11.114Z,62.95
2023-01-03T18:06:20.759Z,62.14
2023-01-03T18:11:26.605Z,62.82
2023-01-03T18:16:29.054Z,63.02
2023-01-03T18:21:33.498Z,61.91
2023-01-03T18:26:43.802Z,62.01
2023-01-03T18:31:46.753Z,62.11
2023-01-03T18:36:52.109Z,62.34
2023-01-03T18:42:15.044Z,62.34
2023-01-03T18:47:17.807Z,62.42
2023-01-03T18:52:24.821Z,62.94
2023-01-03T18:57:27.376Z,63.05
2023-01-03T19:02:30.815Z,63.40
2023-01-03T19:07:35.317Z,63.04
2023-01-03T19:12:41.563Z,63.03
2023-01-03T19:17:48.011Z,62.51
2023-01-03T19:22:52.323Z,62.92
2023-01-03T19:27:57.908Z,62.69
2023-01-03T19:33:00.759Z,62.79
2023-01-03T19:38:03.328Z,62.88
2023-01-03T19:43:06.834Z,62.16
2023-01-03T19:48:37.425Z,62.21
2023-01-03T19:53:40.135Z,62.46
2023-01-03T19:58:43.116Z,62.15
2023-01-03T20:03:45.751Z,62.01
2023-01-03T20:08:48.282Z,61.70
2023-01-03T20:13:50.915Z,61.30
2023-01-03T20:18:53.396Z,61.17
2023-01-03T20:23:58.506Z,61.39
2023-01-03T20:29:01.072Z,61.09
2023-01-03T20:34:06.853Z,61.92
2023-01-03T20:39:36.262Z,61.77
2023-01-03T20:44:38.517Z,62.15
2023-01-03T20:49:43.079Z,63.04
2023-01-03T20:54:48.243Z,63.78
2023-01-03T20:59:50.809Z,63.69
2023-01-03T21:04:53.076Z,63.96
2023-01-03T21:09:58.178Z,63.70
2023-01-03T21:15:00.352Z,63.65
2023-01-03T21:20:02.628Z,63.28
2023-01-03T21:25:06.285Z,63.17
2023-01-03T21:30:09.452Z,63.51
2023-01-03T21:35:22.685Z,63.55
2023-01-03T21:40:27.520Z,63.32
2023-01-03T21:45:29.786Z,63.28
2023-01-03T21:50:33.672Z,63.99
2023-01-03T21:55:36.037Z,64.33
2023-01-03T22:00:38.231Z,63.37
2023-01-03T22:05:40.590Z,63.15
2023-01-03T22:10:53.272Z,63.29
2023-01-03T22:15:56.103Z,64.03
2023-01-03T22:21:07.349Z,63.72
2023-01-03T22:26:12.277Z,63.30
2023-01-03T22:31:17.463Z,62.99
2023-01-03T22:36:21.011Z,62.73
2023-01-03T22:41:23.196Z,63.11
2023-01-03T22:46:25.515Z,63.62
2023-01-03T22:51:27.764Z,62.62
2023-01-03T22:56:36.596Z,62.26
2023-01-03T23:01:39.075Z,62.40
2023-01-03T23:06:41.402Z,62.75
2023-01-03T23:12:02.135Z,63.28
2023-01-03T23:17:23.972Z,63.43
2023-01-03T23:22:27.122Z,63.52
2023-01-03T23:27:29.318Z,63.67
2023-01-03T23:32:33.535Z,63.65
2023-01-03T23:37:35.718Z,63.58
2023-01-03T23:42:37.977Z,64.27
2023-01-03T23:47:40.168Z,64.21
2023-01-03T23:52:42.354Z,63.93
2023-01-03T23:57:45.659Z,64.35
